GAF001 LPPR-EDDF
Flight info
| Callsign | GAF001 |
|---|---|
| Flight time | 2h 10m |
| Altitude | 24000 |
| Route | TURON P600 ASDEB/N0495F400 DCT LOTEE DCT AZFIC/N0493F340 UN741 ERIGA/N0492F400 UN741 MOKOR UN873 OBATO UM163 TSU UN858 OQQAL DCT RANUX/N0486F410 DCT VALEK DCT LIPNI DCT LIMGO/N0488F350 Z111 TUTOV/N0458F230 Z111 RAMOB IMCOM1A |
| Aircraft | A359/H-SDE2E3GHIJ3J4J5LM1ORWXY/LB1D1 |
Departure
| Time | 2026-05-04 15:49 |
|---|---|
| Airport | Francisco de Sá Carneiro Airport (LPPR) |
Arrival
| Time | 2026-05-04 17:59 |
|---|---|
| Airport | Frankfurt Main Airport (EDDF) |
| Time | Latitude | Longitude | Altitude | Speed | Heading |
|---|---|---|---|---|---|
| 2026-05-04 15:19 | 41.23791 | -8.67369 | 263 ft | 0 kts | 48° |
| 2026-05-04 15:32 | 41.23791 | -8.67370 | 263 ft | 0 kts | 48° |
| 2026-05-04 15:35 | 41.23790 | -8.67370 | 263 ft | 0 kts | 48° |
| 2026-05-04 15:40 | 41.23789 | -8.67372 | 263 ft | 1 kts | 49° |
| 2026-05-04 15:40 | 41.23779 | -8.67390 | 265 ft | 3 kts | 68° |
| 2026-05-04 15:40 | 41.23774 | -8.67415 | 263 ft | 3 kts | 98° |
| 2026-05-04 15:41 | 41.23780 | -8.67439 | 268 ft | 3 kts | 124° |
| 2026-05-04 15:41 | 41.23793 | -8.67459 | 268 ft | 3 kts | 143° |
| 2026-05-04 15:41 | 41.23809 | -8.67472 | 265 ft | 2 kts | 163° |
| 2026-05-04 15:41 | 41.23814 | -8.67474 | 266 ft | 1 kts | 167° |
| 2026-05-04 15:44 | 41.23813 | -8.67473 | 265 ft | 3 kts | 167° |
| 2026-05-04 15:45 | 41.23714 | -8.67445 | 264 ft | 25 kts | 168° |
| 2026-05-04 15:45 | 41.23515 | -8.67395 | 269 ft | 30 kts | 170° |
| 2026-05-04 15:45 | 41.23345 | -8.67404 | 270 ft | 15 kts | 232° |
| 2026-05-04 15:45 | 41.23322 | -8.67505 | 275 ft | 10 kts | 257° |
| 2026-05-04 15:46 | 41.23312 | -8.67564 | 278 ft | 0 kts | 258° |
| 2026-05-04 15:47 | 41.23312 | -8.67563 | 278 ft | 0 kts | 258° |
| 2026-05-04 15:47 | 41.23313 | -8.67563 | 278 ft | 0 kts | 258° |
| 2026-05-04 15:47 | 41.23309 | -8.67587 | 280 ft | 2 kts | 258° |
| 2026-05-04 15:48 | 41.23309 | -8.67696 | 283 ft | 16 kts | 301° |
| 2026-05-04 15:48 | 41.23392 | -8.67757 | 281 ft | 3 kts | 345° |
| 2026-05-04 15:48 | 41.23501 | -8.67786 | 275 ft | 55 kts | 349° |
| 2026-05-04 15:49 | 41.24234 | -8.67978 | 255 ft | 155 kts | 348° |
| 2026-05-04 15:49 | 41.25493 | -8.68308 | 718 ft | 203 kts | 346° |
| 2026-05-04 15:49 | 41.26961 | -8.68703 | 1840 ft | 234 kts | 346° |
| 2026-05-04 15:49 | 41.28623 | -8.69143 | 2738 ft | 245 kts | 345° |
| 2026-05-04 15:50 | 41.30291 | -8.69571 | 3774 ft | 245 kts | 346° |
| 2026-05-04 15:50 | 41.31976 | -8.70008 | 4683 ft | 249 kts | 346° |
| 2026-05-04 15:50 | 41.33671 | -8.70450 | 5543 ft | 253 kts | 345° |
| 2026-05-04 15:50 | 41.35413 | -8.70908 | 6430 ft | 259 kts | 346° |
| 2026-05-04 15:51 | 41.37196 | -8.71378 | 7290 ft | 265 kts | 346° |
| 2026-05-04 15:51 | 41.39017 | -8.71857 | 8233 ft | 268 kts | 346° |
| 2026-05-04 15:51 | 41.40859 | -8.72335 | 9216 ft | 273 kts | 347° |
| 2026-05-04 15:51 | 41.42777 | -8.72471 | 10149 ft | 280 kts | 1° |
| 2026-05-04 15:52 | 41.44746 | -8.72147 | 10980 ft | 290 kts | 6° |
| 2026-05-04 15:52 | 41.46753 | -8.71687 | 11868 ft | 295 kts | 6° |
| 2026-05-04 15:52 | 41.48793 | -8.71188 | 12737 ft | 301 kts | 7° |
| 2026-05-04 15:52 | 41.50873 | -8.70669 | 13509 ft | 311 kts | 6° |
| 2026-05-04 15:53 | 41.53041 | -8.70128 | 13887 ft | 331 kts | 7° |
| 2026-05-04 15:53 | 41.55371 | -8.69542 | 14221 ft | 351 kts | 7° |
| 2026-05-04 15:53 | 41.57831 | -8.68920 | 14630 ft | 367 kts | 7° |
| 2026-05-04 15:53 | 41.60368 | -8.68273 | 15283 ft | 374 kts | 7° |
| 2026-05-04 15:54 | 41.62945 | -8.67612 | 16012 ft | 380 kts | 6° |
| 2026-05-04 15:54 | 41.65564 | -8.66942 | 16745 ft | 386 kts | 6° |
| 2026-05-04 15:54 | 41.68214 | -8.66266 | 17519 ft | 391 kts | 6° |
| 2026-05-04 15:54 | 41.70902 | -8.65579 | 18343 ft | 396 kts | 6° |
| 2026-05-04 15:55 | 41.73626 | -8.64882 | 19062 ft | 401 kts | 6° |
| 2026-05-04 15:55 | 41.76376 | -8.64177 | 19781 ft | 405 kts | 6° |
| 2026-05-04 15:55 | 41.79125 | -8.63473 | 20482 ft | 409 kts | 5° |
| 2026-05-04 15:55 | 41.81934 | -8.62753 | 21201 ft | 414 kts | 5° |
| 2026-05-04 15:56 | 41.84779 | -8.62023 | 21921 ft | 418 kts | 5° |
| 2026-05-04 15:56 | 41.87651 | -8.61284 | 22656 ft | 423 kts | 5° |
| 2026-05-04 15:56 | 41.90560 | -8.60537 | 23351 ft | 427 kts | 5° |
| 2026-05-04 15:56 | 41.93493 | -8.59783 | 23953 ft | 432 kts | 5° |
| 2026-05-04 15:57 | 41.96462 | -8.59019 | 24512 ft | 437 kts | 5° |
| 2026-05-04 15:57 | 41.99459 | -8.58247 | 25089 ft | 441 kts | 5° |
| 2026-05-04 15:57 | 42.02445 | -8.57477 | 25674 ft | 445 kts | 5° |
| 2026-05-04 15:57 | 42.05504 | -8.56686 | 26231 ft | 449 kts | 5° |
| 2026-05-04 15:58 | 42.08586 | -8.55908 | 26773 ft | 453 kts | 4° |
| 2026-05-04 15:58 | 42.11717 | -8.55308 | 27325 ft | 456 kts | 1° |
| 2026-05-04 15:58 | 42.14887 | -8.54837 | 27850 ft | 460 kts | 0° |
| 2026-05-04 15:58 | 42.18082 | -8.54405 | 28381 ft | 464 kts | 0° |
| 2026-05-04 15:59 | 42.21314 | -8.53965 | 28882 ft | 469 kts | 0° |
| 2026-05-04 15:59 | 42.24568 | -8.53499 | 29383 ft | 473 kts | 1° |
| 2026-05-04 15:59 | 42.27810 | -8.53008 | 29822 ft | 477 kts | 1° |
| 2026-05-04 15:59 | 42.31127 | -8.52492 | 30282 ft | 482 kts | 1° |
| 2026-05-04 16:00 | 42.34464 | -8.51961 | 30683 ft | 485 kts | 1° |
| 2026-05-04 16:00 | 42.37829 | -8.51419 | 31097 ft | 488 kts | 2° |
| 2026-05-04 16:00 | 42.41203 | -8.50875 | 31509 ft | 490 kts | 2° |
| 2026-05-04 16:00 | 42.44597 | -8.50323 | 31896 ft | 493 kts | 2° |
| 2026-05-04 16:01 | 42.47990 | -8.49430 | 32242 ft | 501 kts | 11° |
| 2026-05-04 16:01 | 42.51303 | -8.47852 | 32578 ft | 509 kts | 20° |
| 2026-05-04 16:01 | 42.54383 | -8.45554 | 32928 ft | 517 kts | 30° |
| 2026-05-04 16:01 | 42.57256 | -8.42586 | 33333 ft | 520 kts | 36° |
| 2026-05-04 16:02 | 42.60019 | -8.39435 | 33893 ft | 518 kts | 38° |
| 2026-05-04 16:02 | 42.62730 | -8.36217 | 34345 ft | 517 kts | 38° |
| 2026-05-04 16:02 | 42.68111 | -8.29728 | 34950 ft | 519 kts | 39° |
| 2026-05-04 16:03 | 42.70811 | -8.26477 | 35281 ft | 519 kts | 38° |
| 2026-05-04 16:03 | 42.73511 | -8.23239 | 35679 ft | 517 kts | 39° |
| 2026-05-04 16:03 | 42.76175 | -8.20052 | 36047 ft | 516 kts | 39° |
| 2026-05-04 16:03 | 42.78875 | -8.16827 | 36374 ft | 516 kts | 39° |
| 2026-05-04 16:04 | 42.81571 | -8.13609 | 36664 ft | 516 kts | 38° |
| 2026-05-04 16:04 | 42.86968 | -8.07155 | 37307 ft | 516 kts | 39° |
| 2026-05-04 16:04 | 42.89661 | -8.03928 | 37630 ft | 515 kts | 39° |
| 2026-05-04 16:05 | 42.92352 | -8.00699 | 37927 ft | 515 kts | 39° |
| 2026-05-04 16:05 | 42.95044 | -7.97465 | 38211 ft | 515 kts | 39° |
| 2026-05-04 16:05 | 43.00364 | -7.91061 | 38839 ft | 513 kts | 39° |
| 2026-05-04 16:06 | 43.03040 | -7.87833 | 39030 ft | 513 kts | 39° |
| 2026-05-04 16:06 | 43.10162 | -7.79226 | 39518 ft | 513 kts | 39° |
| 2026-05-04 16:07 | 43.13740 | -7.74892 | 39769 ft | 513 kts | 39° |
| 2026-05-04 16:07 | 43.21723 | -7.65195 | 40052 ft | 513 kts | 39° |
| 2026-05-04 16:08 | 43.24390 | -7.61947 | 40052 ft | 512 kts | 39° |
| 2026-05-04 16:09 | 43.37708 | -7.45670 | 40035 ft | 513 kts | 40° |
| 2026-05-04 16:10 | 43.48311 | -7.32640 | 40032 ft | 512 kts | 40° |
| 2026-05-04 16:11 | 43.58930 | -7.19526 | 40031 ft | 513 kts | 40° |
| 2026-05-04 16:12 | 43.74787 | -6.99820 | 40018 ft | 512 kts | 40° |
| 2026-05-04 16:13 | 43.85356 | -6.86606 | 40011 ft | 512 kts | 40° |
| 2026-05-04 16:14 | 43.95873 | -6.73390 | 40007 ft | 512 kts | 41° |
| 2026-05-04 16:16 | 44.09044 | -6.56747 | 40001 ft | 511 kts | 41° |
| 2026-05-04 16:17 | 44.22125 | -6.40112 | 39995 ft | 511 kts | 41° |
| 2026-05-04 16:18 | 44.32583 | -6.26739 | 39992 ft | 511 kts | 41° |
| 2026-05-04 16:19 | 44.45662 | -6.09916 | 39999 ft | 511 kts | 42° |
| 2026-05-04 16:20 | 44.58698 | -5.93042 | 39990 ft | 512 kts | 42° |
| 2026-05-04 16:22 | 44.71673 | -5.75918 | 39987 ft | 512 kts | 44° |
| 2026-05-04 16:23 | 44.86898 | -5.54858 | 39995 ft | 513 kts | 44° |
| 2026-05-04 16:25 | 45.02115 | -5.33791 | 39985 ft | 512 kts | 44° |
| 2026-05-04 16:26 | 45.19822 | -5.09059 | 39983 ft | 512 kts | 44° |
| 2026-05-04 16:28 | 45.31609 | -4.92470 | 39982 ft | 512 kts | 45° |
| 2026-05-04 16:29 | 45.50059 | -4.66295 | 39974 ft | 511 kts | 45° |
| 2026-05-04 16:31 | 45.62595 | -4.48361 | 39980 ft | 512 kts | 45° |
| 2026-05-04 16:32 | 45.76798 | -4.27898 | 39981 ft | 511 kts | 45° |
| 2026-05-04 16:33 | 45.86798 | -4.13395 | 39978 ft | 511 kts | 46° |
| 2026-05-04 16:34 | 45.94247 | -4.02541 | 39973 ft | 510 kts | 46° |
| 2026-05-04 16:35 | 46.09125 | -3.80729 | 39973 ft | 510 kts | 46° |
| 2026-05-04 16:36 | 46.16565 | -3.69754 | 39971 ft | 510 kts | 46° |
| 2026-05-04 16:37 | 46.23988 | -3.58758 | 39969 ft | 510 kts | 46° |
| 2026-05-04 16:38 | 46.33867 | -3.44055 | 39968 ft | 512 kts | 46° |
| 2026-05-04 16:39 | 46.46237 | -3.25530 | 39967 ft | 512 kts | 46° |
| 2026-05-04 16:40 | 46.56005 | -3.10597 | 39962 ft | 510 kts | 52° |
| 2026-05-04 16:41 | 46.65246 | -2.88773 | 39958 ft | 507 kts | 61° |
| 2026-05-04 16:43 | 46.74043 | -2.66610 | 39955 ft | 507 kts | 61° |
| 2026-05-04 16:43 | 46.79334 | -2.53258 | 39955 ft | 507 kts | 61° |
| 2026-05-04 16:45 | 46.90000 | -2.26625 | 39964 ft | 508 kts | 59° |
| 2026-05-04 16:46 | 46.99431 | -2.04732 | 39949 ft | 509 kts | 54° |
| 2026-05-04 16:47 | 47.04379 | -1.97408 | 39955 ft | 512 kts | 39° |
| 2026-05-04 16:47 | 47.10009 | -1.90988 | 39943 ft | 513 kts | 37° |
| 2026-05-04 16:48 | 47.21456 | -1.78443 | 39931 ft | 513 kts | 37° |
| 2026-05-04 16:49 | 47.32830 | -1.65823 | 39942 ft | 513 kts | 41° |
| 2026-05-04 16:50 | 47.42127 | -1.49956 | 39930 ft | 511 kts | 53° |
| 2026-05-04 16:51 | 47.48658 | -1.37494 | 39932 ft | 511 kts | 53° |
| 2026-05-04 16:52 | 47.57342 | -1.20931 | 39933 ft | 511 kts | 53° |
| 2026-05-04 16:53 | 47.63871 | -1.08442 | 39942 ft | 511 kts | 53° |
| 2026-05-04 16:54 | 47.72522 | -0.91801 | 39939 ft | 511 kts | 53° |
| 2026-05-04 16:55 | 47.85495 | -0.66647 | 39959 ft | 510 kts | 53° |
| 2026-05-04 16:56 | 47.96215 | -0.45680 | 39957 ft | 510 kts | 53° |
| 2026-05-04 16:57 | 48.02646 | -0.33026 | 39960 ft | 510 kts | 54° |
| 2026-05-04 16:58 | 48.08356 | -0.19697 | 39953 ft | 507 kts | 65° |
| 2026-05-04 16:58 | 48.09908 | -0.14954 | 39948 ft | 507 kts | 66° |
| 2026-05-04 17:00 | 48.18842 | 0.13734 | 39947 ft | 510 kts | 66° |
| 2026-05-04 17:01 | 48.26289 | 0.37805 | 39946 ft | 511 kts | 66° |
| 2026-05-04 17:02 | 48.32229 | 0.57169 | 39941 ft | 511 kts | 67° |
| 2026-05-04 17:03 | 48.36668 | 0.71745 | 39935 ft | 519 kts | 67° |
| 2026-05-04 17:03 | 48.41190 | 0.86682 | 39914 ft | 525 kts | 67° |
| 2026-05-04 17:04 | 48.47217 | 1.06719 | 39924 ft | 525 kts | 67° |
| 2026-05-04 17:05 | 48.53183 | 1.26727 | 39922 ft | 525 kts | 67° |
| 2026-05-04 17:06 | 48.57645 | 1.41795 | 39917 ft | 524 kts | 67° |
| 2026-05-04 17:07 | 48.61588 | 1.55189 | 39919 ft | 524 kts | 67° |
| 2026-05-04 17:07 | 48.65032 | 1.66966 | 39920 ft | 524 kts | 68° |
| 2026-05-04 17:08 | 48.68814 | 1.82376 | 39920 ft | 523 kts | 72° |
| 2026-05-04 17:09 | 48.71222 | 1.92772 | 39935 ft | 523 kts | 72° |
| 2026-05-04 17:09 | 48.73678 | 2.03140 | 39936 ft | 523 kts | 71° |
| 2026-05-04 17:10 | 48.78992 | 2.29395 | 39940 ft | 523 kts | 77° |
| 2026-05-04 17:11 | 48.80789 | 2.40086 | 39935 ft | 523 kts | 77° |
| 2026-05-04 17:12 | 48.83592 | 2.56075 | 39935 ft | 523 kts | 76° |
| 2026-05-04 17:13 | 48.88287 | 2.82707 | 39918 ft | 524 kts | 77° |
| 2026-05-04 17:14 | 48.91998 | 3.04148 | 39931 ft | 524 kts | 77° |
| 2026-05-04 17:15 | 48.94759 | 3.20252 | 39927 ft | 525 kts | 77° |
| 2026-05-04 17:16 | 48.98394 | 3.41678 | 39928 ft | 525 kts | 77° |
| 2026-05-04 17:17 | 49.02006 | 3.63231 | 39927 ft | 525 kts | 77° |
| 2026-05-04 17:18 | 49.05560 | 3.84715 | 39933 ft | 524 kts | 77° |
| 2026-05-04 17:19 | 49.09082 | 4.06278 | 39937 ft | 524 kts | 78° |
| 2026-05-04 17:20 | 49.13816 | 4.27271 | 39937 ft | 526 kts | 70° |
| 2026-05-04 17:20 | 49.17744 | 4.42905 | 39927 ft | 526 kts | 70° |
| 2026-05-04 17:21 | 49.22944 | 4.63722 | 39943 ft | 525 kts | 71° |
| 2026-05-04 17:22 | 49.25532 | 4.74156 | 39949 ft | 524 kts | 71° |
| 2026-05-04 17:23 | 49.30682 | 4.95057 | 39950 ft | 524 kts | 71° |
| 2026-05-04 17:24 | 49.34495 | 5.10666 | 39960 ft | 524 kts | 71° |
| 2026-05-04 17:25 | 49.39570 | 5.31609 | 39957 ft | 524 kts | 71° |
| 2026-05-04 17:26 | 49.44607 | 5.52595 | 39966 ft | 524 kts | 71° |
| 2026-05-04 17:27 | 49.50832 | 5.78814 | 39978 ft | 523 kts | 71° |
| 2026-05-04 17:27 | 49.53310 | 5.89337 | 39756 ft | 523 kts | 72° |
| 2026-05-04 17:28 | 49.55774 | 5.99852 | 39069 ft | 519 kts | 72° |
| 2026-05-04 17:29 | 49.59425 | 6.15524 | 34118 ft | 526 kts | 74° |
| 2026-05-04 17:29 | 49.63117 | 6.31504 | 28294 ft | 527 kts | 74° |
| 2026-05-04 17:30 | 49.66677 | 6.47018 | 25316 ft | 504 kts | 73° |
| 2026-05-04 17:31 | 49.68990 | 6.57164 | 24977 ft | 500 kts | 73° |
| 2026-05-04 17:31 | 49.72426 | 6.72319 | 24624 ft | 496 kts | 72° |
| 2026-05-04 17:32 | 49.74674 | 6.82295 | 24141 ft | 493 kts | 72° |
| 2026-05-04 17:33 | 49.78030 | 6.97280 | 23445 ft | 489 kts | 72° |
| 2026-05-04 17:33 | 49.79138 | 7.02242 | 22972 ft | 486 kts | 72° |
| 2026-05-04 17:34 | 49.82382 | 7.16851 | 20474 ft | 470 kts | 72° |
| 2026-05-04 17:34 | 49.83433 | 7.21612 | 19680 ft | 464 kts | 72° |
| 2026-05-04 17:35 | 49.86487 | 7.35500 | 17227 ft | 448 kts | 72° |
| 2026-05-04 17:35 | 49.88462 | 7.44528 | 15548 ft | 437 kts | 73° |
| 2026-05-04 17:35 | 49.89429 | 7.48963 | 14754 ft | 432 kts | 73° |
| 2026-05-04 17:36 | 49.90384 | 7.53353 | 13957 ft | 427 kts | 73° |
| 2026-05-04 17:36 | 49.91317 | 7.57653 | 13120 ft | 422 kts | 73° |
| 2026-05-04 17:36 | 49.92254 | 7.61977 | 12272 ft | 417 kts | 73° |
| 2026-05-04 17:36 | 49.93170 | 7.66217 | 11524 ft | 411 kts | 73° |
| 2026-05-04 17:37 | 49.94060 | 7.70344 | 11110 ft | 408 kts | 73° |
| 2026-05-04 17:37 | 49.94956 | 7.74515 | 10984 ft | 407 kts | 74° |
| 2026-05-04 17:37 | 49.95847 | 7.78667 | 10979 ft | 404 kts | 73° |
| 2026-05-04 17:37 | 49.96733 | 7.82799 | 10979 ft | 403 kts | 73° |
| 2026-05-04 17:38 | 49.97319 | 7.85539 | 10979 ft | 403 kts | 73° |
| 2026-05-04 17:38 | 49.99376 | 7.95170 | 10973 ft | 403 kts | 73° |
| 2026-05-04 17:38 | 50.00314 | 7.99270 | 10972 ft | 403 kts | 71° |
| 2026-05-04 17:39 | 50.02344 | 8.07395 | 10611 ft | 402 kts | 71° |
| 2026-05-04 17:39 | 50.03347 | 8.11448 | 10467 ft | 401 kts | 71° |
| 2026-05-04 17:39 | 50.04341 | 8.15497 | 10337 ft | 400 kts | 71° |
| 2026-05-04 17:40 | 50.05332 | 8.19559 | 10252 ft | 402 kts | 71° |
| 2026-05-04 17:40 | 50.06306 | 8.23562 | 10109 ft | 399 kts | 71° |
| 2026-05-04 17:40 | 50.07283 | 8.27594 | 9971 ft | 397 kts | 71° |
| 2026-05-04 17:40 | 50.08266 | 8.31657 | 9869 ft | 396 kts | 71° |
| 2026-05-04 17:41 | 50.09221 | 8.35611 | 9748 ft | 395 kts | 71° |
| 2026-05-04 17:41 | 50.10186 | 8.39611 | 9631 ft | 394 kts | 71° |
| 2026-05-04 17:41 | 50.11147 | 8.43603 | 9516 ft | 394 kts | 71° |
| 2026-05-04 17:41 | 50.12104 | 8.47599 | 9409 ft | 393 kts | 72° |
| 2026-05-04 17:42 | 50.13053 | 8.51570 | 9292 ft | 385 kts | 72° |
| 2026-05-04 17:42 | 50.13962 | 8.55368 | 9194 ft | 363 kts | 72° |
| 2026-05-04 17:42 | 50.14818 | 8.58951 | 9097 ft | 343 kts | 72° |
| 2026-05-04 17:42 | 50.15628 | 8.62350 | 8990 ft | 325 kts | 72° |
| 2026-05-04 17:43 | 50.16394 | 8.65572 | 8901 ft | 308 kts | 72° |
| 2026-05-04 17:43 | 50.17115 | 8.68608 | 8678 ft | 299 kts | 72° |
| 2026-05-04 17:43 | 50.17843 | 8.71671 | 8254 ft | 296 kts | 72° |
| 2026-05-04 17:43 | 50.18541 | 8.74628 | 7846 ft | 293 kts | 72° |
| 2026-05-04 17:44 | 50.19243 | 8.77604 | 7442 ft | 290 kts | 72° |
| 2026-05-04 17:44 | 50.19941 | 8.80548 | 7032 ft | 288 kts | 72° |
| 2026-05-04 17:44 | 50.20629 | 8.83478 | 6651 ft | 286 kts | 72° |
| 2026-05-04 17:44 | 50.21305 | 8.86357 | 6411 ft | 277 kts | 72° |
| 2026-05-04 17:45 | 50.21957 | 8.89118 | 6289 ft | 265 kts | 72° |
| 2026-05-04 17:45 | 50.22578 | 8.91764 | 6130 ft | 254 kts | 72° |
| 2026-05-04 17:45 | 50.23176 | 8.94327 | 5896 ft | 249 kts | 72° |
| 2026-05-04 17:45 | 50.23766 | 8.96857 | 5596 ft | 247 kts | 72° |
| 2026-05-04 17:46 | 50.24345 | 8.99329 | 5298 ft | 244 kts | 71° |
| 2026-05-04 17:46 | 50.24931 | 9.01841 | 5056 ft | 242 kts | 72° |
| 2026-05-04 17:46 | 50.25497 | 9.04280 | 4997 ft | 243 kts | 72° |
| 2026-05-04 17:46 | 50.26114 | 9.06740 | 5000 ft | 243 kts | 66° |
| 2026-05-04 17:47 | 50.26866 | 9.09109 | 5001 ft | 243 kts | 64° |
| 2026-05-04 17:47 | 50.27644 | 9.11449 | 4999 ft | 243 kts | 64° |
| 2026-05-04 17:47 | 50.28316 | 9.13863 | 4996 ft | 242 kts | 79° |
| 2026-05-04 17:47 | 50.28253 | 9.16435 | 5001 ft | 237 kts | 110° |
| 2026-05-04 17:48 | 50.27370 | 9.18540 | 5003 ft | 233 kts | 141° |
| 2026-05-04 17:48 | 50.25937 | 9.19618 | 4902 ft | 228 kts | 171° |
| 2026-05-04 17:48 | 50.24378 | 9.19408 | 4482 ft | 230 kts | 201° |
| 2026-05-04 17:48 | 50.23040 | 9.18049 | 4114 ft | 231 kts | 221° |
| 2026-05-04 17:49 | 50.21799 | 9.16452 | 4009 ft | 232 kts | 215° |
| 2026-05-04 17:49 | 50.20481 | 9.15006 | 4001 ft | 232 kts | 214° |
| 2026-05-04 17:49 | 50.19184 | 9.13598 | 3999 ft | 227 kts | 214° |
| 2026-05-04 17:49 | 50.17970 | 9.12163 | 4004 ft | 211 kts | 221° |
| 2026-05-04 17:50 | 50.16960 | 9.10628 | 4000 ft | 196 kts | 227° |
| 2026-05-04 17:50 | 50.16165 | 9.08957 | 3999 ft | 187 kts | 239° |
| 2026-05-04 17:50 | 50.15625 | 9.07226 | 4057 ft | 169 kts | 247° |
| 2026-05-04 17:50 | 50.15232 | 9.05638 | 4118 ft | 146 kts | 248° |
| 2026-05-04 17:51 | 50.14891 | 9.04214 | 4176 ft | 137 kts | 248° |
| 2026-05-04 17:51 | 50.14556 | 9.02825 | 4229 ft | 137 kts | 248° |
| 2026-05-04 17:51 | 50.14225 | 9.01448 | 4130 ft | 134 kts | 248° |
| 2026-05-04 17:51 | 50.13906 | 9.00112 | 4018 ft | 133 kts | 249° |
| 2026-05-04 17:52 | 50.13577 | 8.98733 | 4012 ft | 139 kts | 249° |
| 2026-05-04 17:52 | 50.13233 | 8.97291 | 4002 ft | 141 kts | 248° |
| 2026-05-04 17:52 | 50.12895 | 8.95878 | 4003 ft | 138 kts | 249° |
| 2026-05-04 17:52 | 50.12562 | 8.94482 | 4004 ft | 137 kts | 248° |
| 2026-05-04 17:53 | 50.12230 | 8.93090 | 3996 ft | 137 kts | 249° |
| 2026-05-04 17:53 | 50.11896 | 8.91691 | 3998 ft | 138 kts | 249° |
| 2026-05-04 17:53 | 50.11562 | 8.90291 | 4002 ft | 138 kts | 249° |
| 2026-05-04 17:53 | 50.11228 | 8.88891 | 3998 ft | 137 kts | 249° |
| 2026-05-04 17:54 | 50.10895 | 8.87497 | 4000 ft | 138 kts | 249° |
| 2026-05-04 17:54 | 50.10563 | 8.86099 | 4000 ft | 137 kts | 248° |
| 2026-05-04 17:54 | 50.10233 | 8.84709 | 4000 ft | 137 kts | 248° |
| 2026-05-04 17:54 | 50.09908 | 8.83338 | 3998 ft | 137 kts | 248° |
| 2026-05-04 17:55 | 50.09579 | 8.81949 | 3995 ft | 137 kts | 248° |
| 2026-05-04 17:55 | 50.09249 | 8.80557 | 3996 ft | 137 kts | 248° |
| 2026-05-04 17:55 | 50.08919 | 8.79164 | 3993 ft | 137 kts | 249° |
| 2026-05-04 17:55 | 50.08587 | 8.77760 | 3937 ft | 141 kts | 248° |
| 2026-05-04 17:56 | 50.08237 | 8.76296 | 3632 ft | 146 kts | 249° |
| 2026-05-04 17:56 | 50.07867 | 8.74765 | 3232 ft | 155 kts | 249° |
| 2026-05-04 17:56 | 50.07477 | 8.73165 | 2789 ft | 161 kts | 250° |
| 2026-05-04 17:56 | 50.07060 | 8.71496 | 2242 ft | 169 kts | 250° |
| 2026-05-04 17:57 | 50.06633 | 8.69812 | 1899 ft | 162 kts | 250° |
| 2026-05-04 17:57 | 50.06248 | 8.68312 | 1887 ft | 138 kts | 250° |
| 2026-05-04 17:57 | 50.05895 | 8.66909 | 1801 ft | 148 kts | 253° |
| 2026-05-04 17:57 | 50.05585 | 8.65334 | 1391 ft | 155 kts | 257° |
| 2026-05-04 17:58 | 50.05277 | 8.63766 | 1156 ft | 146 kts | 243° |
| 2026-05-04 17:58 | 50.04844 | 8.62371 | 899 ft | 140 kts | 247° |
| 2026-05-04 17:58 | 50.04537 | 8.60976 | 683 ft | 133 kts | 255° |
| 2026-05-04 17:58 | 50.04237 | 8.59654 | 532 ft | 129 kts | 250° |
| 2026-05-04 17:59 | 50.03945 | 8.58401 | 367 ft | 117 kts | 248° |
| 2026-05-04 17:59 | 50.03712 | 8.57421 | 362 ft | 67 kts | 251° |
| 2026-05-04 17:59 | 50.03844 | 8.56770 | 353 ft | 19 kts | 302° |
| 2026-05-04 18:00 | 50.03912 | 8.56694 | 354 ft | 10 kts | 347° |
| 2026-05-04 18:00 | 50.03936 | 8.56694 | 362 ft | 4 kts | 5° |
| 2026-05-04 18:00 | 50.04068 | 8.56731 | 357 ft | 31 kts | 9° |
| 2026-05-04 18:00 | 50.04169 | 8.56767 | 360 ft | 0 kts | 13° |
| 2026-05-04 18:03 | 50.04170 | 8.56768 | 360 ft | 3 kts | 13° |
| 2026-05-04 18:03 | 50.04282 | 8.56805 | 359 ft | 25 kts | 12° |
| 2026-05-04 18:04 | 50.04368 | 8.56830 | 357 ft | 0 kts | 11° |
| 2026-05-04 18:05 | 50.04375 | 8.56833 | 357 ft | 0 kts | 11° |
| 2026-05-04 18:05 | 50.04406 | 8.56842 | 360 ft | 13 kts | 11° |
| 2026-05-04 18:05 | 50.04488 | 8.56981 | 357 ft | 24 kts | 68° |
| 2026-05-04 18:06 | 50.04602 | 8.57454 | 361 ft | 4 kts | 69° |
| 2026-05-04 18:06 | 50.04611 | 8.57493 | 360 ft | 1 kts | 69° |
| 2026-05-04 18:07 | 50.04620 | 8.57504 | 362 ft | 6 kts | 36° |
| 2026-05-04 18:07 | 50.04640 | 8.57496 | 357 ft | 6 kts | 326° |
| 2026-05-04 18:07 | 50.04714 | 8.57451 | 358 ft | 11 kts | 338° |
| 2026-05-04 18:08 | 50.04752 | 8.57468 | 362 ft | 0 kts | 32° |
| 2026-05-04 18:08 | 50.04736 | 8.57552 | 365 ft | 0 kts | 28° |
| 2026-05-04 18:09 | 50.04737 | 8.57552 | 365 ft | 0 kts | 27° |